sensor_id;sensor_type;location;lat;lon;timestamp;temperature;humidity
63899;HTU21D;50070;-32.946;-60.652;2023-07-30T00:02:18;16.48;61.57
63899;HTU21D;50070;-32.946;-60.652;2023-07-30T00:04:46;16.44;61.67
63899;HTU21D;50070;-32.946;-60.652;2023-07-30T00:07:12;16.44;61.92
63899;HTU21D;50070;-32.946;-60.652;2023-07-30T00:09:40;16.50;62.02
63899;HTU21D;50070;-32.946;-60.652;2023-07-30T00:12:07;16.43;62.40
63899;HTU21D;50070;-32.946;-60.652;2023-07-30T00:14:35;16.43;62.74
63899;HTU21D;50070;-32.946;-60.652;2023-07-30T00:17:02;16.42;62.88
63899;HTU21D;50070;-32.946;-60.652;2023-07-30T00:19:30;16.39;62.95
63899;HTU21D;50070;-32.946;-60.652;2023-07-30T00:21:56;16.28;63.37
63899;HTU21D;50070;-32.946;-60.652;2023-07-30T00:24:23;16.20;63.85
63899;HTU21D;50070;-32.946;-60.652;2023-07-30T00:26:50;16.17;63.95
63899;HTU21D;50070;-32.946;-60.652;2023-07-30T00:29:20;16.24;64.02
63899;HTU21D;50070;-32.946;-60.652;2023-07-30T00:31:46;16.25;63.92
63899;HTU21D;50070;-32.946;-60.652;2023-07-30T00:34:13;16.19;64.40
63899;HTU21D;50070;-32.946;-60.652;2023-07-30T00:36:40;16.26;64.18
63899;HTU21D;50070;-32.946;-60.652;2023-07-30T00:39:07;16.22;64.34
63899;HTU21D;50070;-32.946;-60.652;2023-07-30T00:41:37;16.15;65.11
63899;HTU21D;50070;-32.946;-60.652;2023-07-30T00:44:04;16.18;64.51
63899;HTU21D;50070;-32.946;-60.652;2023-07-30T00:46:31;16.05;65.72
63899;HTU21D;50070;-32.946;-60.652;2023-07-30T00:48:57;16.13;65.56
63899;HTU21D;50070;-32.946;-60.652;2023-07-30T00:51:25;16.01;66.43
63899;HTU21D;50070;-32.946;-60.652;2023-07-30T00:53:52;15.96;66.78
63899;HTU21D;50070;-32.946;-60.652;2023-07-30T00:56:19;16.03;66.85
63899;HTU21D;50070;-32.946;-60.652;2023-07-30T00:58:48;16.01;67.22
63899;HTU21D;50070;-32.946;-60.652;2023-07-30T01:01:15;16.10;66.53
63899;HTU21D;50070;-32.946;-60.652;2023-07-30T01:03:42;16.02;67.20
63899;HTU21D;50070;-32.946;-60.652;2023-07-30T01:06:09;16.10;67.06
63899;HTU21D;50070;-32.946;-60.652;2023-07-30T01:08:36;16.01;67.88
63899;HTU21D;50070;-32.946;-60.652;2023-07-30T01:11:05;15.99;68.23
63899;HTU21D;50070;-32.946;-60.652;2023-07-30T01:13:34;15.99;67.85
63899;HTU21D;50070;-32.946;-60.652;2023-07-30T01:16:02;16.02;67.93
63899;HTU21D;50070;-32.946;-60.652;2023-07-30T01:18:29;16.06;67.92
63899;HTU21D;50070;-32.946;-60.652;2023-07-30T01:21:00;15.95;68.68
63899;HTU21D;50070;-32.946;-60.652;2023-07-30T01:23:27;15.88;69.42
63899;HTU21D;50070;-32.946;-60.652;2023-07-30T01:26:06;15.76;70.54
63899;HTU21D;50070;-32.946;-60.652;2023-07-30T01:28:37;15.69;71.45
63899;HTU21D;50070;-32.946;-60.652;2023-07-30T01:31:06;15.66;71.77
63899;HTU21D;50070;-32.946;-60.652;2023-07-30T01:33:34;15.61;72.69
63899;HTU21D;50070;-32.946;-60.652;2023-07-30T01:36:01;15.84;71.38
63899;HTU21D;50070;-32.946;-60.652;2023-07-30T01:38:29;15.66;73.12
63899;HTU21D;50070;-32.946;-60.652;2023-07-30T01:40:57;15.57;74.00
63899;HTU21D;50070;-32.946;-60.652;2023-07-30T01:43:23;15.49;75.31
63899;HTU21D;50070;-32.946;-60.652;2023-07-30T01:45:50;15.49;75.20
63899;HTU21D;50070;-32.946;-60.652;2023-07-30T01:48:17;15.38;76.49
63899;HTU21D;50070;-32.946;-60.652;2023-07-30T01:50:44;15.42;76.49
63899;HTU21D;50070;-32.946;-60.652;2023-07-30T01:53:13;15.46;76.34
63899;HTU21D;50070;-32.946;-60.652;2023-07-30T01:55:40;15.27;78.14
63899;HTU21D;50070;-32.946;-60.652;2023-07-30T01:58:10;15.42;77.06
63899;HTU21D;50070;-32.946;-60.652;2023-07-30T02:00:36;15.51;76.58
63899;HTU21D;50070;-32.946;-60.652;2023-07-30T02:03:03;15.37;78.06
63899;HTU21D;50070;-32.946;-60.652;2023-07-30T02:05:30;15.36;78.14
63899;HTU21D;50070;-32.946;-60.652;2023-07-30T02:07:58;15.33;78.95
63899;HTU21D;50070;-32.946;-60.652;2023-07-30T02:10:25;15.48;77.89
63899;HTU21D;50070;-32.946;-60.652;2023-07-30T02:12:52;15.47;78.41
63899;HTU21D;50070;-32.946;-60.652;2023-07-30T02:15:18;15.45;78.51
63899;HTU21D;50070;-32.946;-60.652;2023-07-30T02:17:45;15.41;79.40
63899;HTU21D;50070;-32.946;-60.652;2023-07-30T02:20:12;15.34;80.51
63899;HTU21D;50070;-32.946;-60.652;2023-07-30T02:22:39;15.22;81.98
63899;HTU21D;50070;-32.946;-60.652;2023-07-30T02:25:06;15.14;82.62
63899;HTU21D;50070;-32.946;-60.652;2023-07-30T02:27:33;15.34;81.33
63899;HTU21D;50070;-32.946;-60.652;2023-07-30T02:29:59;15.40;80.97
63899;HTU21D;50070;-32.946;-60.652;2023-07-30T02:32:26;15.32;81.19
63899;HTU21D;50070;-32.946;-60.652;2023-07-30T02:34:53;15.14;82.94
63899;HTU21D;50070;-32.946;-60.652;2023-07-30T02:37:20;15.18;82.48
63899;HTU21D;50070;-32.946;-60.652;2023-07-30T02:39:46;14.89;85.86
63899;HTU21D;50070;-32.946;-60.652;2023-07-30T02:42:13;15.11;84.22
63899;HTU21D;50070;-32.946;-60.652;2023-07-30T02:44:40;15.11;84.02
63899;HTU21D;50070;-32.946;-60.652;2023-07-30T02:47:07;14.86;87.25
63899;HTU21D;50070;-32.946;-60.652;2023-07-30T02:49:33;14.91;86.76
63899;HTU21D;50070;-32.946;-60.652;2023-07-30T02:52:00;15.07;85.46
63899;HTU21D;50070;-32.946;-60.652;2023-07-30T02:54:27;14.95;86.56
63899;HTU21D;50070;-32.946;-60.652;2023-07-30T02:56:54;14.84;87.78
63899;HTU21D;50070;-32.946;-60.652;2023-07-30T02:59:20;14.99;86.57
63899;HTU21D;50070;-32.946;-60.652;2023-07-30T03:01:47;14.91;87.19
63899;HTU21D;50070;-32.946;-60.652;2023-07-30T03:04:14;14.78;88.51
63899;HTU21D;50070;-32.946;-60.652;2023-07-30T03:06:41;14.79;88.59
63899;HTU21D;50070;-32.946;-60.652;2023-07-30T03:09:07;14.93;87.24
63899;HTU21D;50070;-32.946;-60.652;2023-07-30T03:11:34;14.75;88.92
63899;HTU21D;50070;-32.946;-60.652;2023-07-30T03:14:01;14.64;90.15
63899;HTU21D;50070;-32.946;-60.652;2023-07-30T03:16:28;14.81;88.87
63899;HTU21D;50070;-32.946;-60.652;2023-07-30T03:18:55;14.58;90.73
63899;HTU21D;50070;-32.946;-60.652;2023-07-30T03:21:21;14.58;90.57
63899;HTU21D;50070;-32.946;-60.652;2023-07-30T03:23:47;14.68;89.63
63899;HTU21D;50070;-32.946;-60.652;2023-07-30T03:26:15;14.62;89.27
63899;HTU21D;50070;-32.946;-60.652;2023-07-30T03:28:41;14.56;90.05
63899;HTU21D;50070;-32.946;-60.652;2023-07-30T03:31:08;14.69;88.49
63899;HTU21D;50070;-32.946;-60.652;2023-07-30T03:33:35;14.77;87.89
63899;HTU21D;50070;-32.946;-60.652;2023-07-30T03:36:02;14.80;87.38
63899;HTU21D;50070;-32.946;-60.652;2023-07-30T03:38:29;14.84;87.10
63899;HTU21D;50070;-32.946;-60.652;2023-07-30T03:40:55;14.66;88.33
63899;HTU21D;50070;-32.946;-60.652;2023-07-30T03:43:22;14.36;91.91
63899;HTU21D;50070;-32.946;-60.652;2023-07-30T03:45:49;14.24;93.24
63899;HTU21D;50070;-32.946;-60.652;2023-07-30T03:48:15;14.40;91.80
63899;HTU21D;50070;-32.946;-60.652;2023-07-30T03:50:42;14.18;93.91
63899;HTU21D;50070;-32.946;-60.652;2023-07-30T03:53:09;14.21;94.14
63899;HTU21D;50070;-32.946;-60.652;2023-07-30T03:55:35;14.22;93.81
63899;HTU21D;50070;-32.946;-60.652;2023-07-30T03:58:02;14.08;95.11
63899;HTU21D;50070;-32.946;-60.652;2023-07-30T04:00:29;14.10;94.23
63899;HTU21D;50070;-32.946;-60.652;2023-07-30T04:02:56;14.14;94.20
63899;HTU21D;50070;-32.946;-60.652;2023-07-30T04:05:22;14.13;94.36
63899;HTU21D;50070;-32.946;-60.652;2023-07-30T04:07:49;14.03;95.09
63899;HTU21D;50070;-32.946;-60.652;2023-07-30T04:10:16;14.07;95.16
63899;HTU21D;50070;-32.946;-60.652;2023-07-30T04:12:43;14.05;95.31
63899;HTU21D;50070;-32.946;-60.652;2023-07-30T04:15:10;14.08;95.17
63899;HTU21D;50070;-32.946;-60.652;2023-07-30T04:17:37;14.03;95.53
63899;HTU21D;50070;-32.946;-60.652;2023-07-30T04:20:05;13.98;96.51
63899;HTU21D;50070;-32.946;-60.652;2023-07-30T04:22:32;14.03;96.01
63899;HTU21D;50070;-32.946;-60.652;2023-07-30T04:24:59;13.88;97.68
63899;HTU21D;50070;-32.946;-60.652;2023-07-30T04:27:26;13.93;97.50
63899;HTU21D;50070;-32.946;-60.652;2023-07-30T04:29:53;13.90;98.16
63899;HTU21D;50070;-32.946;-60.652;2023-07-30T04:32:20;13.81;98.76
63899;HTU21D;50070;-32.946;-60.652;2023-07-30T04:34:46;13.85;98.57
63899;HTU21D;50070;-32.946;-60.652;2023-07-30T04:37:13;13.83;98.78
63899;HTU21D;50070;-32.946;-60.652;2023-07-30T04:39:40;13.77;99.69
63899;HTU21D;50070;-32.946;-60.652;2023-07-30T04:42:07;13.63;101.00
63899;HTU21D;50070;-32.946;-60.652;2023-07-30T04:44:34;13.56;101.94
63899;HTU21D;50070;-32.946;-60.652;2023-07-30T04:47:00;13.59;101.83
63899;HTU21D;50070;-32.946;-60.652;2023-07-30T04:49:27;13.54;102.36
63899;HTU21D;50070;-32.946;-60.652;2023-07-30T04:51:54;13.58;102.39
63899;HTU21D;50070;-32.946;-60.652;2023-07-30T04:54:20;13.59;102.54
63899;HTU21D;50070;-32.946;-60.652;2023-07-30T04:56:47;13.66;101.93
63899;HTU21D;50070;-32.946;-60.652;2023-07-30T04:59:14;13.63;102.35
63899;HTU21D;50070;-32.946;-60.652;2023-07-30T05:01:41;13.66;102.39
63899;HTU21D;50070;-32.946;-60.652;2023-07-30T05:04:08;13.80;101.21
63899;HTU21D;50070;-32.946;-60.652;2023-07-30T05:06:34;13.60;103.27
63899;HTU21D;50070;-32.946;-60.652;2023-07-30T05:09:01;13.61;103.35
63899;HTU21D;50070;-32.946;-60.652;2023-07-30T05:11:28;13.65;103.28
63899;HTU21D;50070;-32.946;-60.652;2023-07-30T05:13:55;13.67;103.17
63899;HTU21D;50070;-32.946;-60.652;2023-07-30T05:16:21;13.73;103.00
63899;HTU21D;50070;-32.946;-60.652;2023-07-30T05:18:48;13.74;103.01
63899;HTU21D;50070;-32.946;-60.652;2023-07-30T05:21:15;13.82;102.34
63899;HTU21D;50070;-32.946;-60.652;2023-07-30T05:23:41;13.74;103.02
63899;HTU21D;50070;-32.946;-60.652;2023-07-30T05:26:08;13.69;103.15
63899;HTU21D;50070;-32.946;-60.652;2023-07-30T05:28:35;13.70;103.60
63899;HTU21D;50070;-32.946;-60.652;2023-07-30T05:31:02;13.83;102.32
63899;HTU21D;50070;-32.946;-60.652;2023-07-30T05:33:28;13.67;103.90
63899;HTU21D;50070;-32.946;-60.652;2023-07-30T05:35:56;13.79;103.08
63899;HTU21D;50070;-32.946;-60.652;2023-07-30T05:38:23;13.80;102.41
63899;HTU21D;50070;-32.946;-60.652;2023-07-30T05:40:50;13.83;102.06
63899;HTU21D;50070;-32.946;-60.652;2023-07-30T05:43:17;13.70;103.42
63899;HTU21D;50070;-32.946;-60.652;2023-07-30T05:45:44;13.71;103.04
63899;HTU21D;50070;-32.946;-60.652;2023-07-30T05:48:10;13.70;102.86
63899;HTU21D;50070;-32.946;-60.652;2023-07-30T05:50:37;13.78;102.25
63899;HTU21D;50070;-32.946;-60.652;2023-07-30T05:53:04;13.66;103.50
63899;HTU21D;50070;-32.946;-60.652;2023-07-30T05:55:31;13.63;103.64
63899;HTU21D;50070;-32.946;-60.652;2023-07-30T05:57:58;13.60;103.97
63899;HTU21D;50070;-32.946;-60.652;2023-07-30T06:00:25;13.63;103.73
63899;HTU21D;50070;-32.946;-60.652;2023-07-30T06:02:52;13.61;103.47
63899;HTU21D;50070;-32.946;-60.652;2023-07-30T06:05:18;13.69;103.03
63899;HTU21D;50070;-32.946;-60.652;2023-07-30T06:07:45;13.78;101.99
63899;HTU21D;50070;-32.946;-60.652;2023-07-30T06:10:12;13.66;102.92
63899;HTU21D;50070;-32.946;-60.652;2023-07-30T06:12:39;13.67;103.02
63899;HTU21D;50070;-32.946;-60.652;2023-07-30T06:15:06;13.59;103.92
63899;HTU21D;50070;-32.946;-60.652;2023-07-30T06:17:33;13.69;102.87
63899;HTU21D;50070;-32.946;-60.652;2023-07-30T06:20:00;13.64;103.74
63899;HTU21D;50070;-32.946;-60.652;2023-07-30T06:22:27;13.56;104.05
63899;HTU21D;50070;-32.946;-60.652;2023-07-30T06:24:54;13.61;103.45
63899;HTU21D;50070;-32.946;-60.652;2023-07-30T06:27:21;13.67;102.90
63899;HTU21D;50070;-32.946;-60.652;2023-07-30T06:29:47;13.64;103.32
63899;HTU21D;50070;-32.946;-60.652;2023-07-30T06:32:14;13.67;102.80
63899;HTU21D;50070;-32.946;-60.652;2023-07-30T06:34:41;13.77;101.75
63899;HTU21D;50070;-32.946;-60.652;2023-07-30T06:37:07;13.90;100.74
63899;HTU21D;50070;-32.946;-60.652;2023-07-30T06:39:34;13.81;101.38
63899;HTU21D;50070;-32.946;-60.652;2023-07-30T06:42:01;13.75;101.92
63899;HTU21D;50070;-32.946;-60.652;2023-07-30T06:44:28;13.64;103.21
63899;HTU21D;50070;-32.946;-60.652;2023-07-30T06:46:54;13.66;102.88
63899;HTU21D;50070;-32.946;-60.652;2023-07-30T06:49:21;13.61;103.58
63899;HTU21D;50070;-32.946;-60.652;2023-07-30T06:51:49;13.64;103.35
63899;HTU21D;50070;-32.946;-60.652;2023-07-30T06:54:15;13.90;101.05
63899;HTU21D;50070;-32.946;-60.652;2023-07-30T06:56:42;13.77;102.77
63899;HTU21D;50070;-32.946;-60.652;2023-07-30T06:59:09;13.66;103.31
63899;HTU21D;50070;-32.946;-60.652;2023-07-30T07:01:36;13.68;103.18
63899;HTU21D;50070;-32.946;-60.652;2023-07-30T07:04:02;13.63;103.95
63899;HTU21D;50070;-32.946;-60.652;2023-07-30T07:06:29;13.64;104.07
63899;HTU21D;50070;-32.946;-60.652;2023-07-30T07:08:55;13.63;104.05
63899;HTU21D;50070;-32.946;-60.652;2023-07-30T07:11:22;13.64;104.37
63899;HTU21D;50070;-32.946;-60.652;2023-07-30T07:13:49;13.56;104.92
63899;HTU21D;50070;-32.946;-60.652;2023-07-30T07:16:15;13.66;104.37
63899;HTU21D;50070;-32.946;-60.652;2023-07-30T07:18:42;13.76;103.61
63899;HTU21D;50070;-32.946;-60.652;2023-07-30T07:21:09;13.84;102.73
63899;HTU21D;50070;-32.946;-60.652;2023-07-30T07:23:36;13.75;103.43
63899;HTU21D;50070;-32.946;-60.652;2023-07-30T07:26:03;13.76;103.66
63899;HTU21D;50070;-32.946;-60.652;2023-07-30T07:28:30;13.83;102.90
63899;HTU21D;50070;-32.946;-60.652;2023-07-30T07:30:57;13.89;102.74
63899;HTU21D;50070;-32.946;-60.652;2023-07-30T07:33:24;13.84;102.62
63899;HTU21D;50070;-32.946;-60.652;2023-07-30T07:35:50;13.89;102.77
63899;HTU21D;50070;-32.946;-60.652;2023-07-30T07:38:17;13.78;103.67
63899;HTU21D;50070;-32.946;-60.652;2023-07-30T07:40:44;13.86;102.83
63899;HTU21D;50070;-32.946;-60.652;2023-07-30T07:43:10;13.79;103.95
63899;HTU21D;50070;-32.946;-60.652;2023-07-30T07:45:38;13.69;104.81
63899;HTU21D;50070;-32.946;-60.652;2023-07-30T07:48:06;13.79;104.24
63899;HTU21D;50070;-32.946;-60.652;2023-07-30T07:50:32;13.71;104.89
63899;HTU21D;50070;-32.946;-60.652;2023-07-30T07:52:59;13.62;105.80
63899;HTU21D;50070;-32.946;-60.652;2023-07-30T07:55:26;13.51;107.36
63899;HTU21D;50070;-32.946;-60.652;2023-07-30T07:57:52;13.55;107.01
63899;HTU21D;50070;-32.946;-60.652;2023-07-30T08:00:19;13.85;104.40
63899;HTU21D;50070;-32.946;-60.652;2023-07-30T08:02:46;13.64;106.14
63899;HTU21D;50070;-32.946;-60.652;2023-07-30T08:05:13;13.56;107.02
63899;HTU21D;50070;-32.946;-60.652;2023-07-30T08:07:40;13.60;106.89
63899;HTU21D;50070;-32.946;-60.652;2023-07-30T08:10:07;13.82;104.95
63899;HTU21D;50070;-32.946;-60.652;2023-07-30T08:12:34;13.78;105.03
63899;HTU21D;50070;-32.946;-60.652;2023-07-30T08:15:01;13.54;107.77
63899;HTU21D;50070;-32.946;-60.652;2023-07-30T08:17:28;13.75;106.14
63899;HTU21D;50070;-32.946;-60.652;2023-07-30T08:19:55;13.74;105.47
63899;HTU21D;50070;-32.946;-60.652;2023-07-30T08:22:22;13.68;106.14
63899;HTU21D;50070;-32.946;-60.652;2023-07-30T08:24:49;13.66;106.42
63899;HTU21D;50070;-32.946;-60.652;2023-07-30T08:27:15;13.78;105.52
63899;HTU21D;50070;-32.946;-60.652;2023-07-30T08:29:42;13.69;106.35
63899;HTU21D;50070;-32.946;-60.652;2023-07-30T08:32:09;13.51;107.98
63899;HTU21D;50070;-32.946;-60.652;2023-07-30T08:34:36;13.54;107.71
63899;HTU21D;50070;-32.946;-60.652;2023-07-30T08:37:02;13.46;108.91
63899;HTU21D;50070;-32.946;-60.652;2023-07-30T08:39:29;13.43;108.87
63899;HTU21D;50070;-32.946;-60.652;2023-07-30T08:41:56;13.38;109.06
63899;HTU21D;50070;-32.946;-60.652;2023-07-30T08:44:23;13.21;110.89
63899;HTU21D;50070;-32.946;-60.652;2023-07-30T08:46:50;13.20;111.26
63899;HTU21D;50070;-32.946;-60.652;2023-07-30T08:49:16;13.16;111.47
63899;HTU21D;50070;-32.946;-60.652;2023-07-30T08:51:44;13.20;111.23
63899;HTU21D;50070;-32.946;-60.652;2023-07-30T08:54:12;13.30;110.52
63899;HTU21D;50070;-32.946;-60.652;2023-07-30T08:56:42;13.21;110.84
63899;HTU21D;50070;-32.946;-60.652;2023-07-30T08:59:09;13.27;110.42
63899;HTU21D;50070;-32.946;-60.652;2023-07-30T09:01:38;13.25;110.60
63899;HTU21D;50070;-32.946;-60.652;2023-07-30T09:04:06;13.17;111.45
63899;HTU21D;50070;-32.946;-60.652;2023-07-30T09:06:34;13.19;111.14
63899;HTU21D;50070;-32.946;-60.652;2023-07-30T09:09:02;13.26;110.44
63899;HTU21D;50070;-32.946;-60.652;2023-07-30T09:11:29;13.30;110.40
63899;HTU21D;50070;-32.946;-60.652;2023-07-30T09:13:57;13.21;111.07
63899;HTU21D;50070;-32.946;-60.652;2023-07-30T09:16:27;13.05;112.48
63899;HTU21D;50070;-32.946;-60.652;2023-07-30T09:18:54;13.22;110.67
63899;HTU21D;50070;-32.946;-60.652;2023-07-30T09:21:30;13.43;108.88
63899;HTU21D;50070;-32.946;-60.652;2023-07-30T09:23:57;13.29;110.09
63899;HTU21D;50070;-32.946;-60.652;2023-07-30T09:26:51;13.36;109.46
63899;HTU21D;50070;-32.946;-60.652;2023-07-30T09:29:18;13.41;108.60
63899;HTU21D;50070;-32.946;-60.652;2023-07-30T09:31:50;13.29;110.17
63899;HTU21D;50070;-32.946;-60.652;2023-07-30T09:34:25;13.59;107.36
63899;HTU21D;50070;-32.946;-60.652;2023-07-30T09:36:53;13.31;109.95
63899;HTU21D;50070;-32.946;-60.652;2023-07-30T09:39:25;13.24;110.58
63899;HTU21D;50070;-32.946;-60.652;2023-07-30T09:41:58;13.24;110.52
63899;HTU21D;50070;-32.946;-60.652;2023-07-30T09:44:26;13.37;109.62
63899;HTU21D;50070;-32.946;-60.652;2023-07-30T09:46:53;13.47;108.55
63899;HTU21D;50070;-32.946;-60.652;2023-07-30T09:49:20;13.06;112.53
63899;HTU21D;50070;-32.946;-60.652;2023-07-30T09:51:47;13.00;113.23
63899;HTU21D;50070;-32.946;-60.652;2023-07-30T09:54:15;12.94;113.77
63899;HTU21D;50070;-32.946;-60.652;2023-07-30T09:56:42;13.14;112.26
63899;HTU21D;50070;-32.946;-60.652;2023-07-30T09:59:10;12.88;114.28
63899;HTU21D;50070;-32.946;-60.652;2023-07-30T10:01:43;12.78;115.62
63899;HTU21D;50070;-32.946;-60.652;2023-07-30T10:04:11;12.93;114.21
63899;HTU21D;50070;-32.946;-60.652;2023-07-30T10:06:45;12.99;113.42
63899;HTU21D;50070;-32.946;-60.652;2023-07-30T10:09:13;13.08;112.54
63899;HTU21D;50070;-32.946;-60.652;2023-07-30T10:11:42;13.02;113.28
63899;HTU21D;50070;-32.946;-60.652;2023-07-30T10:14:09;13.26;110.91
63899;HTU21D;50070;-32.946;-60.652;2023-07-30T10:16:36;13.07;112.28
63899;HTU21D;50070;-32.946;-60.652;2023-07-30T10:19:03;13.08;112.42
63899;HTU21D;50070;-32.946;-60.652;2023-07-30T10:21:32;12.93;113.80
63899;HTU21D;50070;-32.946;-60.652;2023-07-30T10:24:02;13.01;113.16
63899;HTU21D;50070;-32.946;-60.652;2023-07-30T10:26:31;12.87;114.38
63899;HTU21D;50070;-32.946;-60.652;2023-07-30T10:29:11;12.85;114.72
63899;HTU21D;50070;-32.946;-60.652;2023-07-30T10:31:43;12.58;117.11
63899;HTU21D;50070;-32.946;-60.652;2023-07-30T10:34:11;12.52;117.70
63899;HTU21D;50070;-32.946;-60.652;2023-07-30T10:36:46;12.51;118.28
63899;HTU21D;50070;-32.946;-60.652;2023-07-30T10:41:46;12.45;118.67
63899;HTU21D;50070;-32.946;-60.652;2023-07-30T10:44:26;12.45;118.72
63899;HTU21D;50070;-32.946;-60.652;2023-07-30T10:46:54;12.38;118.99
63899;HTU21D;50070;-32.946;-60.652;2023-07-30T10:49:21;12.45;118.67
63899;HTU21D;50070;-32.946;-60.652;2023-07-30T10:51:50;12.35;118.99
63899;HTU21D;50070;-32.946;-60.652;2023-07-30T10:54:17;12.33;118.99
63899;HTU21D;50070;-32.946;-60.652;2023-07-30T10:56:44;12.38;118.99
63899;HTU21D;50070;-32.946;-60.652;2023-07-30T10:59:12;12.34;118.99
63899;HTU21D;50070;-32.946;-60.652;2023-07-30T11:01:44;12.25;118.99
63899;HTU21D;50070;-32.946;-60.652;2023-07-30T11:04:15;12.19;118.99
63899;HTU21D;50070;-32.946;-60.652;2023-07-30T11:06:45;12.33;118.99
63899;HTU21D;50070;-32.946;-60.652;2023-07-30T11:09:27;12.45;118.99
63899;HTU21D;50070;-32.946;-60.652;2023-07-30T11:11:55;12.35;118.99
63899;HTU21D;50070;-32.946;-60.652;2023-07-30T11:14:23;12.44;118.99
63899;HTU21D;50070;-32.946;-60.652;2023-07-30T11:16:55;12.35;118.99
63899;HTU21D;50070;-32.946;-60.652;2023-07-30T11:19:23;12.49;118.10
63899;HTU21D;50070;-32.946;-60.652;2023-07-30T11:21:52;12.41;118.99
63899;HTU21D;50070;-32.946;-60.652;2023-07-30T11:24:20;12.43;118.70
63899;HTU21D;50070;-32.946;-60.652;2023-07-30T11:27:00;12.35;118.99
63899;HTU21D;50070;-32.946;-60.652;2023-07-30T11:29:27;12.40;118.99
63899;HTU21D;50070;-32.946;-60.652;2023-07-30T11:31:59;12.60;117.10
63899;HTU21D;50070;-32.946;-60.652;2023-07-30T11:34:28;12.55;117.65
63899;HTU21D;50070;-32.946;-60.652;2023-07-30T11:36:56;12.50;117.93
63899;HTU21D;50070;-32.946;-60.652;2023-07-30T11:39:24;12.53;117.58
63899;HTU21D;50070;-32.946;-60.652;2023-07-30T11:41:51;12.61;116.39
63899;HTU21D;50070;-32.946;-60.652;2023-07-30T11:44:37;12.47;117.86
63899;HTU21D;50070;-32.946;-60.652;2023-07-30T11:47:05;12.38;118.79
63899;HTU21D;50070;-32.946;-60.652;2023-07-30T11:49:32;12.33;118.55
63899;HTU21D;50070;-32.946;-60.652;2023-07-30T11:52:08;12.49;117.89
63899;HTU21D;50070;-32.946;-60.652;2023-07-30T11:54:35;12.49;117.21
63899;HTU21D;50070;-32.946;-60.652;2023-07-30T11:57:02;12.43;117.39
63899;HTU21D;50070;-32.946;-60.652;2023-07-30T11:59:31;12.46;117.63
63899;HTU21D;50070;-32.946;-60.652;2023-07-30T12:01:58;12.48;117.22
63899;HTU21D;50070;-32.946;-60.652;2023-07-30T12:04:25;12.67;115.77
63899;HTU21D;50070;-32.946;-60.652;2023-07-30T12:06:56;12.58;116.67
63899;HTU21D;50070;-32.946;-60.652;2023-07-30T12:09:24;12.55;117.03
63899;HTU21D;50070;-32.946;-60.652;2023-07-30T12:12:01;12.81;114.61
63899;HTU21D;50070;-32.946;-60.652;2023-07-30T12:15:14;12.79;115.01
63899;HTU21D;50070;-32.946;-60.652;2023-07-30T12:17:15;12.65;116.88
63899;HTU21D;50070;-32.946;-60.652;2023-07-30T12:19:42;12.74;116.16
63899;HTU21D;50070;-32.946;-60.652;2023-07-30T12:22:09;12.78;116.48
63899;HTU21D;50070;-32.946;-60.652;2023-07-30T12:24:36;12.80;116.08
63899;HTU21D;50070;-32.946;-60.652;2023-07-30T12:27:03;12.80;115.67
63899;HTU21D;50070;-32.946;-60.652;2023-07-30T12:29:30;12.88;115.60
63899;HTU21D;50070;-32.946;-60.652;2023-07-30T12:31:57;12.87;116.22
63899;HTU21D;50070;-32.946;-60.652;2023-07-30T12:34:24;12.79;116.48
63899;HTU21D;50070;-32.946;-60.652;2023-07-30T12:36:51;12.81;116.87
63899;HTU21D;50070;-32.946;-60.652;2023-07-30T12:39:17;13.08;114.52
63899;HTU21D;50070;-32.946;-60.652;2023-07-30T12:41:44;13.38;112.29
63899;HTU21D;50070;-32.946;-60.652;2023-07-30T12:44:11;13.43;112.23
63899;HTU21D;50070;-32.946;-60.652;2023-07-30T12:46:38;13.45;112.06
63899;HTU21D;50070;-32.946;-60.652;2023-07-30T12:49:04;13.41;111.43
63899;HTU21D;50070;-32.946;-60.652;2023-07-30T12:51:32;13.40;112.20
63899;HTU21D;50070;-32.946;-60.652;2023-07-30T12:53:59;13.39;112.48
63899;HTU21D;50070;-32.946;-60.652;2023-07-30T12:56:26;13.39;111.23
63899;HTU21D;50070;-32.946;-60.652;2023-07-30T12:58:53;13.61;110.20
63899;HTU21D;50070;-32.946;-60.652;2023-07-30T13:01:19;13.66;109.60
63899;HTU21D;50070;-32.946;-60.652;2023-07-30T13:03:46;13.73;109.46
63899;HTU21D;50070;-32.946;-60.652;2023-07-30T13:06:14;13.86;108.07
63899;HTU21D;50070;-32.946;-60.652;2023-07-30T13:08:40;13.90;107.71
63899;HTU21D;50070;-32.946;-60.652;2023-07-30T13:11:07;14.03;107.11
63899;HTU21D;50070;-32.946;-60.652;2023-07-30T13:13:34;14.11;106.59
63899;HTU21D;50070;-32.946;-60.652;2023-07-30T13:16:01;14.15;106.71
63899;HTU21D;50070;-32.946;-60.652;2023-07-30T13:18:28;14.15;105.92
63899;HTU21D;50070;-32.946;-60.652;2023-07-30T13:20:55;14.29;105.14
63899;HTU21D;50070;-32.946;-60.652;2023-07-30T13:23:22;14.28;105.43
63899;HTU21D;50070;-32.946;-60.652;2023-07-30T13:25:51;14.43;104.06
63899;HTU21D;50070;-32.946;-60.652;2023-07-30T13:28:18;14.41;103.90
63899;HTU21D;50070;-32.946;-60.652;2023-07-30T13:30:45;14.53;104.09
63899;HTU21D;50070;-32.946;-60.652;2023-07-30T13:33:11;14.74;102.52
63899;HTU21D;50070;-32.946;-60.652;2023-07-30T13:35:38;14.53;103.45
63899;HTU21D;50070;-32.946;-60.652;2023-07-30T13:38:05;14.62;103.95
63899;HTU21D;50070;-32.946;-60.652;2023-07-30T13:40:32;14.72;103.39
63899;HTU21D;50070;-32.946;-60.652;2023-07-30T13:42:58;14.73;102.25
63899;HTU21D;50070;-32.946;-60.652;2023-07-30T13:45:25;14.78;101.11
63899;HTU21D;50070;-32.946;-60.652;2023-07-30T13:47:52;14.85;100.81
63899;HTU21D;50070;-32.946;-60.652;2023-07-30T13:50:19;15.02;99.48
63899;HTU21D;50070;-32.946;-60.652;2023-07-30T13:52:46;15.18;97.68
63899;HTU21D;50070;-32.946;-60.652;2023-07-30T13:55:13;15.22;97.37
63899;HTU21D;50070;-32.946;-60.652;2023-07-30T13:57:39;15.25;97.09
63899;HTU21D;50070;-32.946;-60.652;2023-07-30T14:00:07;15.19;96.93
63899;HTU21D;50070;-32.946;-60.652;2023-07-30T14:02:34;15.27;95.71
63899;HTU21D;50070;-32.946;-60.652;2023-07-30T14:05:01;15.32;95.75
63899;HTU21D;50070;-32.946;-60.652;2023-07-30T14:07:28;15.51;94.09
63899;HTU21D;50070;-32.946;-60.652;2023-07-30T14:09:55;15.59;94.43
63899;HTU21D;50070;-32.946;-60.652;2023-07-30T14:12:22;15.65;93.08
63899;HTU21D;50070;-32.946;-60.652;2023-07-30T14:14:49;15.78;93.24
63899;HTU21D;50070;-32.946;-60.652;2023-07-30T14:17:15;16.02;91.46
63899;HTU21D;50070;-32.946;-60.652;2023-07-30T14:19:42;16.03;91.09
63899;HTU21D;50070;-32.946;-60.652;2023-07-30T14:22:09;16.17;91.23
63899;HTU21D;50070;-32.946;-60.652;2023-07-30T14:24:36;16.18;89.18
63899;HTU21D;50070;-32.946;-60.652;2023-07-30T14:27:03;16.37;89.34
63899;HTU21D;50070;-32.946;-60.652;2023-07-30T14:29:30;16.29;87.84
63899;HTU21D;50070;-32.946;-60.652;2023-07-30T14:31:57;16.51;87.88